Terminal Aerodrome Forecast
Issued by NWS

Home | Current Version | Previous Version | Graphics & Text | Print | Product List | Glossary On
Versions: 1 2 3 4 5 6 7 8 9 10 11 12 13 14 15 16 17 18 19
257
FTUS43 KBIS 180530
TAFMOT
TAF
KMOT 180530Z 1806/1906 24010KT P6SM SCT070 SCT100
      TEMPO 1808/1812 BKN070 OVC100
     FM181500 24011KT P6SM -RASN OVC060
     FM181800 26014KT P6SM -RASN OVC020
     FM182200 30014KT P6SM VCSH OVC035
     FM190000 29012KT P6SM OVC045
     FM190300 28013KT P6SM SCT090=

USA.gov is the U.S. government's official web portal to all federal, state and local government web resources and services.